CheckWX is a tool to help pilots better visualize weather data.  It is not intended as a substitute for an official pre-flight weather briefing.

21:20:32 UTC

C83 METAR
Byron Airport
Byron, California, USA
Current

26 mins ago

KC83 232055Z AUTO 00000KT 10SM SCT120 13/02 A3031 RMK AO2
Observed
Feb-23 @ 20:55 UTC
Visibility
10 SM
Flight Rules
VFR
Cloud Levels
  • Scattered at 12,000' AGL
Temperature
13°C / 55°F
Dewpoint
C / 36°F
Humidity
47%
Altimeter
30.31" Hg
Pressure
1026.42 hPa
Previous

46 mins ago

KC83 232035Z AUTO 00000KT 10SM FEW100 BKN120 13/03 A3032 RMK AO2
Observed
Feb-23 @ 20:35 UTC
Visibility
10 SM
Flight Rules
VFR
Cloud Levels
  • Few at 10,000' AGL
  • Broken at 12,000' AGL
Temperature
13°C / 55°F
Dewpoint
C / 37°F
Humidity
51%
Altimeter
30.32" Hg
Pressure
1026.72 hPa
Previous

1 hour ago

KC83 232015Z AUTO 08003KT 10SM BKN100 12/02 A3033 RMK AO2
Observed
Feb-23 @ 20:15 UTC
Wind
  • 080° at 3 KTS
Visibility
10 SM
Flight Rules
VFR
Cloud Levels
  • Broken at 10,000' AGL
Temperature
12°C / 54°F
Dewpoint
C / 36°F
Humidity
51%
Altimeter
30.33" Hg
Pressure
1027.12 hPa